sensor_id;sensor_type;location;lat;lon;timestamp;temperature;humidity
38414;DHT22;24195;48.654;9.294;2022-07-01T00:00:45;15.30;99.90
38414;DHT22;24195;48.654;9.294;2022-07-01T00:03:11;15.20;99.90
38414;DHT22;24195;48.654;9.294;2022-07-01T00:05:36;15.00;99.90
38414;DHT22;24195;48.654;9.294;2022-07-01T00:08:02;15.10;99.90
38414;DHT22;24195;48.654;9.294;2022-07-01T00:10:27;15.10;99.90
38414;DHT22;24195;48.654;9.294;2022-07-01T00:12:53;15.00;99.90
38414;DHT22;24195;48.654;9.294;2022-07-01T00:15:19;15.00;99.90
38414;DHT22;24195;48.654;9.294;2022-07-01T00:17:47;15.00;99.90
38414;DHT22;24195;48.654;9.294;2022-07-01T00:20:13;14.70;99.90
38414;DHT22;24195;48.654;9.294;2022-07-01T00:22:41;14.60;99.90
38414;DHT22;24195;48.654;9.294;2022-07-01T00:25:08;14.40;99.90
38414;DHT22;24195;48.654;9.294;2022-07-01T00:27:38;14.40;99.90
38414;DHT22;24195;48.654;9.294;2022-07-01T00:30:04;14.30;99.90
38414;DHT22;24195;48.654;9.294;2022-07-01T00:32:30;14.30;99.90
38414;DHT22;24195;48.654;9.294;2022-07-01T00:35:01;13.80;99.90
38414;DHT22;24195;48.654;9.294;2022-07-01T00:37:27;14.10;99.90
38414;DHT22;24195;48.654;9.294;2022-07-01T00:39:52;14.00;99.90
38414;DHT22;24195;48.654;9.294;2022-07-01T00:42:18;14.50;99.90
38414;DHT22;24195;48.654;9.294;2022-07-01T00:44:44;13.80;99.90
38414;DHT22;24195;48.654;9.294;2022-07-01T00:47:13;13.90;99.90
38414;DHT22;24195;48.654;9.294;2022-07-01T00:49:48;14.00;99.90
38414;DHT22;24195;48.654;9.294;2022-07-01T00:52:14;14.00;99.90
38414;DHT22;24195;48.654;9.294;2022-07-01T00:54:40;14.00;99.90
38414;DHT22;24195;48.654;9.294;2022-07-01T00:57:11;14.10;99.90
38414;DHT22;24195;48.654;9.294;2022-07-01T00:59:38;14.10;99.90
38414;DHT22;24195;48.654;9.294;2022-07-01T01:02:22;14.00;99.90
38414;DHT22;24195;48.654;9.294;2022-07-01T01:04:48;14.20;99.90
38414;DHT22;24195;48.654;9.294;2022-07-01T01:07:14;14.30;99.90
38414;DHT22;24195;48.654;9.294;2022-07-01T01:09:41;14.40;99.90
38414;DHT22;24195;48.654;9.294;2022-07-01T01:12:07;14.50;99.90
38414;DHT22;24195;48.654;9.294;2022-07-01T01:15:02;14.40;99.90
38414;DHT22;24195;48.654;9.294;2022-07-01T01:17:28;14.40;99.90
38414;DHT22;24195;48.654;9.294;2022-07-01T01:19:53;14.50;99.90
38414;DHT22;24195;48.654;9.294;2022-07-01T01:22:21;14.30;99.90
38414;DHT22;24195;48.654;9.294;2022-07-01T01:24:47;14.30;99.90
38414;DHT22;24195;48.654;9.294;2022-07-01T01:27:14;14.30;99.90
38414;DHT22;24195;48.654;9.294;2022-07-01T01:29:40;14.30;99.90
38414;DHT22;24195;48.654;9.294;2022-07-01T01:32:14;14.40;99.90
38414;DHT22;24195;48.654;9.294;2022-07-01T01:34:40;14.20;99.90
38414;DHT22;24195;48.654;9.294;2022-07-01T01:37:07;14.20;99.90
38414;DHT22;24195;48.654;9.294;2022-07-01T01:39:33;14.30;99.90
38414;DHT22;24195;48.654;9.294;2022-07-01T01:41:59;14.20;99.90
38414;DHT22;24195;48.654;9.294;2022-07-01T01:44:29;14.30;99.90
38414;DHT22;24195;48.654;9.294;2022-07-01T01:46:54;14.10;99.90
38414;DHT22;24195;48.654;9.294;2022-07-01T01:49:20;13.60;99.90
38414;DHT22;24195;48.654;9.294;2022-07-01T01:51:45;14.20;99.90
38414;DHT22;24195;48.654;9.294;2022-07-01T01:54:11;14.20;99.90
38414;DHT22;24195;48.654;9.294;2022-07-01T01:56:36;14.60;99.90
38414;DHT22;24195;48.654;9.294;2022-07-01T01:59:02;14.00;99.90
38414;DHT22;24195;48.654;9.294;2022-07-01T02:01:30;14.10;99.90
38414;DHT22;24195;48.654;9.294;2022-07-01T02:03:56;14.20;99.90
38414;DHT22;24195;48.654;9.294;2022-07-01T02:06:24;14.10;99.90
38414;DHT22;24195;48.654;9.294;2022-07-01T02:08:50;14.40;99.90
38414;DHT22;24195;48.654;9.294;2022-07-01T02:11:27;14.30;99.90
38414;DHT22;24195;48.654;9.294;2022-07-01T02:13:52;14.30;99.90
38414;DHT22;24195;48.654;9.294;2022-07-01T02:16:18;14.40;99.90
38414;DHT22;24195;48.654;9.294;2022-07-01T02:18:46;14.40;99.90
38414;DHT22;24195;48.654;9.294;2022-07-01T02:21:11;14.30;99.90
38414;DHT22;24195;48.654;9.294;2022-07-01T02:23:37;14.40;99.90
38414;DHT22;24195;48.654;9.294;2022-07-01T02:26:03;14.50;99.90
38414;DHT22;24195;48.654;9.294;2022-07-01T02:28:28;14.50;99.90
38414;DHT22;24195;48.654;9.294;2022-07-01T02:30:54;14.20;99.90
38414;DHT22;24195;48.654;9.294;2022-07-01T02:33:19;14.30;99.90
38414;DHT22;24195;48.654;9.294;2022-07-01T02:35:45;14.30;99.90
38414;DHT22;24195;48.654;9.294;2022-07-01T02:38:12;14.30;99.90
38414;DHT22;24195;48.654;9.294;2022-07-01T02:40:38;14.20;99.90
38414;DHT22;24195;48.654;9.294;2022-07-01T02:43:05;14.20;99.90
38414;DHT22;24195;48.654;9.294;2022-07-01T02:45:31;14.20;99.90
38414;DHT22;24195;48.654;9.294;2022-07-01T02:47:56;14.20;99.90
38414;DHT22;24195;48.654;9.294;2022-07-01T02:50:22;14.30;99.90
38414;DHT22;24195;48.654;9.294;2022-07-01T02:52:48;14.20;99.90
38414;DHT22;24195;48.654;9.294;2022-07-01T02:55:16;14.10;99.90
38414;DHT22;24195;48.654;9.294;2022-07-01T02:57:42;14.10;99.90
38414;DHT22;24195;48.654;9.294;2022-07-01T03:00:11;14.10;99.90
38414;DHT22;24195;48.654;9.294;2022-07-01T03:02:52;14.20;99.90
38414;DHT22;24195;48.654;9.294;2022-07-01T03:05:18;14.20;99.90
38414;DHT22;24195;48.654;9.294;2022-07-01T03:07:43;14.30;99.90
38414;DHT22;24195;48.654;9.294;2022-07-01T03:10:11;14.20;99.90
38414;DHT22;24195;48.654;9.294;2022-07-01T03:12:37;14.60;99.90
38414;DHT22;24195;48.654;9.294;2022-07-01T03:15:09;14.20;99.90
38414;DHT22;24195;48.654;9.294;2022-07-01T03:17:37;14.20;99.90
38414;DHT22;24195;48.654;9.294;2022-07-01T03:20:04;14.10;99.90
38414;DHT22;24195;48.654;9.294;2022-07-01T03:22:31;14.10;99.90
38414;DHT22;24195;48.654;9.294;2022-07-01T03:24:57;14.00;99.90
38414;DHT22;24195;48.654;9.294;2022-07-01T03:27:23;14.00;99.90
38414;DHT22;24195;48.654;9.294;2022-07-01T03:29:50;14.00;99.90
38414;DHT22;24195;48.654;9.294;2022-07-01T03:32:16;14.20;99.90
38414;DHT22;24195;48.654;9.294;2022-07-01T03:34:47;14.00;99.90
38414;DHT22;24195;48.654;9.294;2022-07-01T03:37:13;14.00;99.90
38414;DHT22;24195;48.654;9.294;2022-07-01T03:39:39;14.00;99.90
38414;DHT22;24195;48.654;9.294;2022-07-01T03:42:06;14.00;99.90
38414;DHT22;24195;48.654;9.294;2022-07-01T03:44:45;14.20;99.90
38414;DHT22;24195;48.654;9.294;2022-07-01T03:47:13;14.10;99.90
38414;DHT22;24195;48.654;9.294;2022-07-01T03:49:38;14.10;99.90
38414;DHT22;24195;48.654;9.294;2022-07-01T03:52:12;14.20;99.90
38414;DHT22;24195;48.654;9.294;2022-07-01T03:54:50;14.20;99.90
38414;DHT22;24195;48.654;9.294;2022-07-01T03:57:16;14.20;99.90
38414;DHT22;24195;48.654;9.294;2022-07-01T03:59:41;14.80;99.90
38414;DHT22;24195;48.654;9.294;2022-07-01T04:02:09;14.10;99.90
38414;DHT22;24195;48.654;9.294;2022-07-01T04:04:35;14.20;99.90
38414;DHT22;24195;48.654;9.294;2022-07-01T04:07:03;14.20;99.90
38414;DHT22;24195;48.654;9.294;2022-07-01T04:09:30;14.30;99.90
38414;DHT22;24195;48.654;9.294;2022-07-01T04:11:56;14.10;99.90
38414;DHT22;24195;48.654;9.294;2022-07-01T04:14:23;14.30;99.90
38414;DHT22;24195;48.654;9.294;2022-07-01T04:16:52;14.20;99.90
38414;DHT22;24195;48.654;9.294;2022-07-01T04:19:18;14.20;99.90
38414;DHT22;24195;48.654;9.294;2022-07-01T04:21:44;14.20;99.90
38414;DHT22;24195;48.654;9.294;2022-07-01T04:24:28;14.20;99.90
38414;DHT22;24195;48.654;9.294;2022-07-01T04:26:57;14.20;99.90
38414;DHT22;24195;48.654;9.294;2022-07-01T04:29:23;13.90;99.90
38414;DHT22;24195;48.654;9.294;2022-07-01T04:31:49;13.90;99.90
38414;DHT22;24195;48.654;9.294;2022-07-01T04:34:15;14.10;99.90
38414;DHT22;24195;48.654;9.294;2022-07-01T04:36:41;13.90;99.90
38414;DHT22;24195;48.654;9.294;2022-07-01T04:39:07;13.80;99.90
38414;DHT22;24195;48.654;9.294;2022-07-01T04:41:33;14.00;99.90
38414;DHT22;24195;48.654;9.294;2022-07-01T04:44:18;14.00;99.90
38414;DHT22;24195;48.654;9.294;2022-07-01T04:46:43;14.30;99.90
38414;DHT22;24195;48.654;9.294;2022-07-01T04:49:09;14.10;99.90
38414;DHT22;24195;48.654;9.294;2022-07-01T04:51:35;14.10;99.90
38414;DHT22;24195;48.654;9.294;2022-07-01T04:54:04;14.20;99.90
38414;DHT22;24195;48.654;9.294;2022-07-01T04:56:32;14.30;99.90
38414;DHT22;24195;48.654;9.294;2022-07-01T04:59:02;14.30;99.90
38414;DHT22;24195;48.654;9.294;2022-07-01T05:01:28;14.10;99.90
38414;DHT22;24195;48.654;9.294;2022-07-01T05:03:57;14.20;99.90
38414;DHT22;24195;48.654;9.294;2022-07-01T05:06:23;14.90;99.90
38414;DHT22;24195;48.654;9.294;2022-07-01T05:08:49;14.10;99.90
38414;DHT22;24195;48.654;9.294;2022-07-01T05:11:14;14.10;99.90
38414;DHT22;24195;48.654;9.294;2022-07-01T05:13:40;14.70;99.90
38414;DHT22;24195;48.654;9.294;2022-07-01T05:16:06;13.60;99.90
38414;DHT22;24195;48.654;9.294;2022-07-01T05:18:34;14.50;99.90
38414;DHT22;24195;48.654;9.294;2022-07-01T05:21:19;14.00;99.90
38414;DHT22;24195;48.654;9.294;2022-07-01T05:24:03;14.00;99.90
38414;DHT22;24195;48.654;9.294;2022-07-01T05:26:29;13.90;99.90
38414;DHT22;24195;48.654;9.294;2022-07-01T05:28:54;13.80;99.90
38414;DHT22;24195;48.654;9.294;2022-07-01T05:31:20;13.80;99.90
38414;DHT22;24195;48.654;9.294;2022-07-01T05:33:47;13.80;99.90
38414;DHT22;24195;48.654;9.294;2022-07-01T05:36:13;13.90;99.90
38414;DHT22;24195;48.654;9.294;2022-07-01T05:38:39;13.90;99.90
38414;DHT22;24195;48.654;9.294;2022-07-01T05:41:05;14.20;99.90
38414;DHT22;24195;48.654;9.294;2022-07-01T05:43:31;14.00;99.90
38414;DHT22;24195;48.654;9.294;2022-07-01T05:45:57;14.00;99.90
38414;DHT22;24195;48.654;9.294;2022-07-01T05:48:23;13.80;99.90
38414;DHT22;24195;48.654;9.294;2022-07-01T05:50:52;13.70;99.90
38414;DHT22;24195;48.654;9.294;2022-07-01T05:53:18;13.80;99.90
38414;DHT22;24195;48.654;9.294;2022-07-01T05:55:43;13.80;99.90
38414;DHT22;24195;48.654;9.294;2022-07-01T05:58:13;14.10;99.90
38414;DHT22;24195;48.654;9.294;2022-07-01T06:00:39;13.70;99.90
38414;DHT22;24195;48.654;9.294;2022-07-01T06:03:07;13.80;99.90
38414;DHT22;24195;48.654;9.294;2022-07-01T06:05:33;13.70;99.90
38414;DHT22;24195;48.654;9.294;2022-07-01T06:07:58;13.70;99.90
38414;DHT22;24195;48.654;9.294;2022-07-01T06:10:24;13.90;99.90
38414;DHT22;24195;48.654;9.294;2022-07-01T06:12:50;13.80;99.90
38414;DHT22;24195;48.654;9.294;2022-07-01T06:15:15;13.80;99.90
38414;DHT22;24195;48.654;9.294;2022-07-01T06:17:41;13.90;99.90
38414;DHT22;24195;48.654;9.294;2022-07-01T06:20:07;14.30;99.90
38414;DHT22;24195;48.654;9.294;2022-07-01T06:22:33;14.20;99.90
38414;DHT22;24195;48.654;9.294;2022-07-01T06:25:00;14.20;99.90
38414;DHT22;24195;48.654;9.294;2022-07-01T06:27:26;14.50;99.90
38414;DHT22;24195;48.654;9.294;2022-07-01T06:29:52;14.40;99.90
38414;DHT22;24195;48.654;9.294;2022-07-01T06:32:18;14.50;99.90
38414;DHT22;24195;48.654;9.294;2022-07-01T06:34:44;14.50;99.90
38414;DHT22;24195;48.654;9.294;2022-07-01T06:37:10;14.50;99.90
38414;DHT22;24195;48.654;9.294;2022-07-01T06:39:36;15.10;99.90
38414;DHT22;24195;48.654;9.294;2022-07-01T06:42:02;14.80;99.90
38414;DHT22;24195;48.654;9.294;2022-07-01T06:44:28;15.00;99.90
38414;DHT22;24195;48.654;9.294;2022-07-01T06:46:59;14.80;99.90
38414;DHT22;24195;48.654;9.294;2022-07-01T06:52:08;14.80;99.90
38414;DHT22;24195;48.654;9.294;2022-07-01T06:54:34;14.70;99.90
38414;DHT22;24195;48.654;9.294;2022-07-01T06:57:03;14.50;99.90
38414;DHT22;24195;48.654;9.294;2022-07-01T06:59:29;14.70;99.90
38414;DHT22;24195;48.654;9.294;2022-07-01T07:01:55;14.60;99.90
38414;DHT22;24195;48.654;9.294;2022-07-01T07:04:29;14.70;99.90
38414;DHT22;24195;48.654;9.294;2022-07-01T07:07:05;14.70;99.90
38414;DHT22;24195;48.654;9.294;2022-07-01T07:09:31;14.70;99.90
38414;DHT22;24195;48.654;9.294;2022-07-01T07:11:56;14.50;99.90
38414;DHT22;24195;48.654;9.294;2022-07-01T07:14:22;14.40;99.90
38414;DHT22;24195;48.654;9.294;2022-07-01T07:16:47;14.90;99.90
38414;DHT22;24195;48.654;9.294;2022-07-01T07:19:13;14.60;99.90
38414;DHT22;24195;48.654;9.294;2022-07-01T07:21:38;14.10;99.90
38414;DHT22;24195;48.654;9.294;2022-07-01T07:24:04;14.30;99.90
38414;DHT22;24195;48.654;9.294;2022-07-01T07:26:31;14.40;99.90
38414;DHT22;24195;48.654;9.294;2022-07-01T07:28:57;14.60;99.90
38414;DHT22;24195;48.654;9.294;2022-07-01T07:31:23;14.50;99.90
38414;DHT22;24195;48.654;9.294;2022-07-01T07:33:48;14.70;99.90
38414;DHT22;24195;48.654;9.294;2022-07-01T07:36:19;14.80;99.90
38414;DHT22;24195;48.654;9.294;2022-07-01T07:38:44;14.60;99.90
38414;DHT22;24195;48.654;9.294;2022-07-01T07:41:42;14.80;99.90
38414;DHT22;24195;48.654;9.294;2022-07-01T07:44:14;14.70;99.90
38414;DHT22;24195;48.654;9.294;2022-07-01T07:47:03;14.40;99.90
38414;DHT22;24195;48.654;9.294;2022-07-01T07:49:29;14.70;99.90
38414;DHT22;24195;48.654;9.294;2022-07-01T07:51:55;14.90;99.90
38414;DHT22;24195;48.654;9.294;2022-07-01T07:54:21;14.20;99.90
38414;DHT22;24195;48.654;9.294;2022-07-01T07:56:46;14.60;99.90
38414;DHT22;24195;48.654;9.294;2022-07-01T07:59:12;16.00;99.90
38414;DHT22;24195;48.654;9.294;2022-07-01T08:01:43;14.70;99.90
38414;DHT22;24195;48.654;9.294;2022-07-01T08:04:09;14.90;99.90
38414;DHT22;24195;48.654;9.294;2022-07-01T09:01:23;14.80;99.90
38414;DHT22;24195;48.654;9.294;2022-07-01T09:11:35;15.40;99.90
38414;DHT22;24195;48.654;9.294;2022-07-01T09:14:16;15.80;99.90
38414;DHT22;24195;48.654;9.294;2022-07-01T09:16:57;15.50;99.90
38414;DHT22;24195;48.654;9.294;2022-07-01T09:19:24;15.50;99.90
38414;DHT22;24195;48.654;9.294;2022-07-01T09:21:51;15.30;99.90
38414;DHT22;24195;48.654;9.294;2022-07-01T09:24:51;15.40;99.90
38414;DHT22;24195;48.654;9.294;2022-07-01T09:27:25;15.80;99.90
38414;DHT22;24195;48.654;9.294;2022-07-01T09:30:16;16.70;99.90
38414;DHT22;24195;48.654;9.294;2022-07-01T09:35:56;17.30;99.90
38414;DHT22;24195;48.654;9.294;2022-07-01T09:38:26;14.80;99.90
38414;DHT22;24195;48.654;9.294;2022-07-01T09:40:54;14.70;99.90
38414;DHT22;24195;48.654;9.294;2022-07-01T09:43:27;15.60;99.90
38414;DHT22;24195;48.654;9.294;2022-07-01T09:45:58;14.60;99.90
38414;DHT22;24195;48.654;9.294;2022-07-01T09:58:45;14.90;99.90
38414;DHT22;24195;48.654;9.294;2022-07-01T10:06:34;15.00;99.90
38414;DHT22;24195;48.654;9.294;2022-07-01T10:09:37;15.20;99.90
38414;DHT22;24195;48.654;9.294;2022-07-01T10:14:52;15.70;99.90
38414;DHT22;24195;48.654;9.294;2022-07-01T10:17:41;16.40;99.90
38414;DHT22;24195;48.654;9.294;2022-07-01T10:20:18;15.00;99.90
38414;DHT22;24195;48.654;9.294;2022-07-01T10:22:45;14.60;99.90
38414;DHT22;24195;48.654;9.294;2022-07-01T10:28:12;14.70;99.90
38414;DHT22;24195;48.654;9.294;2022-07-01T10:30:55;14.90;99.90
38414;DHT22;24195;48.654;9.294;2022-07-01T10:33:36;15.40;99.90
38414;DHT22;24195;48.654;9.294;2022-07-01T10:38:35;16.30;99.90
38414;DHT22;24195;48.654;9.294;2022-07-01T10:41:24;18.20;99.90
38414;DHT22;24195;48.654;9.294;2022-07-01T10:43:50;17.80;99.90
38414;DHT22;24195;48.654;9.294;2022-07-01T10:46:58;17.00;99.90
38414;DHT22;24195;48.654;9.294;2022-07-01T10:52:07;16.70;99.90
38414;DHT22;24195;48.654;9.294;2022-07-01T10:59:47;16.70;99.90
38414;DHT22;24195;48.654;9.294;2022-07-01T11:04:54;16.50;99.90
38414;DHT22;24195;48.654;9.294;2022-07-01T11:07:24;16.60;99.90
38414;DHT22;24195;48.654;9.294;2022-07-01T11:10:09;16.50;99.90
38414;DHT22;24195;48.654;9.294;2022-07-01T11:12:43;17.50;99.90
38414;DHT22;24195;48.654;9.294;2022-07-01T11:15:10;17.10;99.90
38414;DHT22;24195;48.654;9.294;2022-07-01T11:17:42;17.10;99.90
38414;DHT22;24195;48.654;9.294;2022-07-01T11:20:08;17.80;99.90
38414;DHT22;24195;48.654;9.294;2022-07-01T11:22:34;17.80;99.90
38414;DHT22;24195;48.654;9.294;2022-07-01T11:25:08;18.50;99.90
38414;DHT22;24195;48.654;9.294;2022-07-01T11:27:49;18.40;99.90
38414;DHT22;24195;48.654;9.294;2022-07-01T11:30:20;17.70;99.90
38414;DHT22;24195;48.654;9.294;2022-07-01T11:32:52;17.40;99.90
38414;DHT22;24195;48.654;9.294;2022-07-01T11:35:27;17.00;99.90
38414;DHT22;24195;48.654;9.294;2022-07-01T11:38:18;17.40;99.90
38414;DHT22;24195;48.654;9.294;2022-07-01T11:41:05;17.60;99.90
38414;DHT22;24195;48.654;9.294;2022-07-01T11:43:36;17.60;99.90
38414;DHT22;24195;48.654;9.294;2022-07-01T11:46:04;17.10;99.90
38414;DHT22;24195;48.654;9.294;2022-07-01T11:50:58;16.70;99.90
38414;DHT22;24195;48.654;9.294;2022-07-01T11:53:24;16.80;99.90
38414;DHT22;24195;48.654;9.294;2022-07-01T11:55:53;17.20;99.90
38414;DHT22;24195;48.654;9.294;2022-07-01T11:58:20;17.70;99.90
38414;DHT22;24195;48.654;9.294;2022-07-01T12:00:45;17.10;99.90
38414;DHT22;24195;48.654;9.294;2022-07-01T12:03:11;17.00;99.90
38414;DHT22;24195;48.654;9.294;2022-07-01T12:05:36;16.80;99.90
38414;DHT22;24195;48.654;9.294;2022-07-01T12:08:04;17.00;99.90
38414;DHT22;24195;48.654;9.294;2022-07-01T12:10:30;17.10;99.90
38414;DHT22;24195;48.654;9.294;2022-07-01T12:12:56;17.00;99.90
38414;DHT22;24195;48.654;9.294;2022-07-01T12:15:22;17.00;99.90
38414;DHT22;24195;48.654;9.294;2022-07-01T12:17:48;17.10;99.90
38414;DHT22;24195;48.654;9.294;2022-07-01T12:20:14;17.40;99.90
38414;DHT22;24195;48.654;9.294;2022-07-01T12:22:40;17.40;99.90
38414;DHT22;24195;48.654;9.294;2022-07-01T12:25:13;18.30;99.90
38414;DHT22;24195;48.654;9.294;2022-07-01T12:27:39;17.60;99.90
38414;DHT22;24195;48.654;9.294;2022-07-01T12:30:07;18.10;99.90
38414;DHT22;24195;48.654;9.294;2022-07-01T12:32:36;17.90;99.90
38414;DHT22;24195;48.654;9.294;2022-07-01T12:35:07;17.90;99.90
38414;DHT22;24195;48.654;9.294;2022-07-01T12:37:52;17.90;99.90
38414;DHT22;24195;48.654;9.294;2022-07-01T12:40:23;17.90;99.90
38414;DHT22;24195;48.654;9.294;2022-07-01T12:42:49;18.60;99.90
38414;DHT22;24195;48.654;9.294;2022-07-01T12:45:16;19.20;99.90
38414;DHT22;24195;48.654;9.294;2022-07-01T12:47:44;19.90;99.90
38414;DHT22;24195;48.654;9.294;2022-07-01T12:50:11;19.70;99.90
38414;DHT22;24195;48.654;9.294;2022-07-01T12:52:38;20.00;99.90
38414;DHT22;24195;48.654;9.294;2022-07-01T12:55:18;19.60;99.90
38414;DHT22;24195;48.654;9.294;2022-07-01T12:57:47;19.40;99.90
38414;DHT22;24195;48.654;9.294;2022-07-01T13:00:13;19.00;99.90
38414;DHT22;24195;48.654;9.294;2022-07-01T13:02:39;19.00;99.90
38414;DHT22;24195;48.654;9.294;2022-07-01T13:05:07;18.50;99.90
38414;DHT22;24195;48.654;9.294;2022-07-01T13:07:36;18.20;99.90
38414;DHT22;24195;48.654;9.294;2022-07-01T13:10:14;18.10;99.90
38414;DHT22;24195;48.654;9.294;2022-07-01T13:12:40;18.10;99.90
38414;DHT22;24195;48.654;9.294;2022-07-01T13:15:10;18.10;99.90
38414;DHT22;24195;48.654;9.294;2022-07-01T13:17:36;18.50;99.90
38414;DHT22;24195;48.654;9.294;2022-07-01T13:20:01;18.70;99.90
38414;DHT22;24195;48.654;9.294;2022-07-01T13:22:27;19.80;99.90
38414;DHT22;24195;48.654;9.294;2022-07-01T13:24:52;20.90;99.90
38414;DHT22;24195;48.654;9.294;2022-07-01T13:27:18;21.80;99.90
38414;DHT22;24195;48.654;9.294;2022-07-01T13:29:44;22.30;99.90
38414;DHT22;24195;48.654;9.294;2022-07-01T13:32:09;21.60;99.90
38414;DHT22;24195;48.654;9.294;2022-07-01T13:34:36;21.20;99.90
38414;DHT22;24195;48.654;9.294;2022-07-01T13:37:02;21.00;99.90
38414;DHT22;24195;48.654;9.294;2022-07-01T13:39:27;21.00;99.90
38414;DHT22;24195;48.654;9.294;2022-07-01T13:41:53;21.00;99.90
38414;DHT22;24195;48.654;9.294;2022-07-01T13:44:21;20.80;99.90
38414;DHT22;24195;48.654;9.294;2022-07-01T13:46:47;20.20;99.90
38414;DHT22;24195;48.654;9.294;2022-07-01T13:49:18;20.00;99.90
38414;DHT22;24195;48.654;9.294;2022-07-01T13:51:44;20.20;99.90
38414;DHT22;24195;48.654;9.294;2022-07-01T13:54:10;20.20;99.90
38414;DHT22;24195;48.654;9.294;2022-07-01T13:56:36;20.60;99.90
38414;DHT22;24195;48.654;9.294;2022-07-01T13:59:02;20.80;99.90
38414;DHT22;24195;48.654;9.294;2022-07-01T14:01:28;21.90;99.90
38414;DHT22;24195;48.654;9.294;2022-07-01T14:03:54;22.70;99.90
38414;DHT22;24195;48.654;9.294;2022-07-01T14:06:20;24.50;99.90
38414;DHT22;24195;48.654;9.294;2022-07-01T14:08:46;27.30;99.70
38414;DHT22;24195;48.654;9.294;2022-07-01T14:11:12;28.80;96.40
38414;DHT22;24195;48.654;9.294;2022-07-01T14:13:39;29.60;90.60
38414;DHT22;24195;48.654;9.294;2022-07-01T14:16:06;31.20;90.90
38414;DHT22;24195;48.654;9.294;2022-07-01T14:18:35;33.60;83.00
38414;DHT22;24195;48.654;9.294;2022-07-01T14:21:04;36.10;76.70
38414;DHT22;24195;48.654;9.294;2022-07-01T14:23:31;36.60;66.70
38414;DHT22;24195;48.654;9.294;2022-07-01T14:25:57;36.90;66.50
38414;DHT22;24195;48.654;9.294;2022-07-01T14:28:31;36.70;67.50
38414;DHT22;24195;48.654;9.294;2022-07-01T14:30:57;37.30;63.30
38414;DHT22;24195;48.654;9.294;2022-07-01T14:33:22;37.40;58.60
38414;DHT22;24195;48.654;9.294;2022-07-01T14:35:48;38.10;60.40
38414;DHT22;24195;48.654;9.294;2022-07-01T14:38:15;39.20;56.20
38414;DHT22;24195;48.654;9.294;2022-07-01T14:40:44;39.70;53.20
38414;DHT22;24195;48.654;9.294;2022-07-01T14:43:11;39.90;53.20
38414;DHT22;24195;48.654;9.294;2022-07-01T14:45:37;39.80;51.80
38414;DHT22;24195;48.654;9.294;2022-07-01T14:48:08;38.40;55.90
38414;DHT22;24195;48.654;9.294;2022-07-01T14:50:34;38.70;52.20
38414;DHT22;24195;48.654;9.294;2022-07-01T14:53:02;37.30;51.90
38414;DHT22;24195;48.654;9.294;2022-07-01T14:55:29;35.40;57.00
38414;DHT22;24195;48.654;9.294;2022-07-01T14:57:55;35.20;57.30
38414;DHT22;24195;48.654;9.294;2022-07-01T15:00:20;36.40;56.60
38414;DHT22;24195;48.654;9.294;2022-07-01T15:03:04;39.20;54.00
38414;DHT22;24195;48.654;9.294;2022-07-01T15:05:39;40.00;50.90
38414;DHT22;24195;48.654;9.294;2022-07-01T15:08:14;38.30;50.20
38414;DHT22;24195;48.654;9.294;2022-07-01T15:10:40;37.10;52.40
38414;DHT22;24195;48.654;9.294;2022-07-01T15:13:06;37.20;55.00
38414;DHT22;24195;48.654;9.294;2022-07-01T15:15:37;37.60;53.70
38414;DHT22;24195;48.654;9.294;2022-07-01T15:18:34;38.80;50.70
38414;DHT22;24195;48.654;9.294;2022-07-01T15:21:03;40.60;49.30
38414;DHT22;24195;48.654;9.294;2022-07-01T15:23:38;40.90;47.80
38414;DHT22;24195;48.654;9.294;2022-07-01T15:26:04;40.30;47.50
38414;DHT22;24195;48.654;9.294;2022-07-01T15:28:30;40.40;47.70
38414;DHT22;24195;48.654;9.294;2022-07-01T15:30:58;41.60;47.20
38414;DHT22;24195;48.654;9.294;2022-07-01T15:33:24;41.40;46.00
38414;DHT22;24195;48.654;9.294;2022-07-01T15:35:49;40.30;45.80
38414;DHT22;24195;48.654;9.294;2022-07-01T15:38:15;38.00;50.40
38414;DHT22;24195;48.654;9.294;2022-07-01T15:40:40;37.30;53.60
38414;DHT22;24195;48.654;9.294;2022-07-01T15:43:07;37.10;51.80
38414;DHT22;24195;48.654;9.294;2022-07-01T15:45:34;37.60;48.90
38414;DHT22;24195;48.654;9.294;2022-07-01T15:47:59;39.90;47.80
38414;DHT22;24195;48.654;9.294;2022-07-01T15:50:32;39.90;47.00
38414;DHT22;24195;48.654;9.294;2022-07-01T15:52:57;41.10;46.80
38414;DHT22;24195;48.654;9.294;2022-07-01T15:55:23;41.60;43.70
38414;DHT22;24195;48.654;9.294;2022-07-01T15:57:49;38.80;45.70
38414;DHT22;24195;48.654;9.294;2022-07-01T16:00:18;33.80;51.20
38414;DHT22;24195;48.654;9.294;2022-07-01T16:02:45;33.00;54.10
38414;DHT22;24195;48.654;9.294;2022-07-01T16:05:28;35.20;51.80
38414;DHT22;24195;48.654;9.294;2022-07-01T16:08:13;35.50;50.70
38414;DHT22;24195;48.654;9.294;2022-07-01T16:10:48;37.30;47.80
38414;DHT22;24195;48.654;9.294;2022-07-01T16:13:18;38.60;47.10
38414;DHT22;24195;48.654;9.294;2022-07-01T16:15:46;38.80;49.70
38414;DHT22;24195;48.654;9.294;2022-07-01T16:18:14;39.20;47.00
38414;DHT22;24195;48.654;9.294;2022-07-01T16:20:43;37.00;49.40
38414;DHT22;24195;48.654;9.294;2022-07-01T16:23:20;38.10;46.30
38414;DHT22;24195;48.654;9.294;2022-07-01T16:25:47;37.50;47.50
38414;DHT22;24195;48.654;9.294;2022-07-01T16:28:18;36.60;47.30
38414;DHT22;24195;48.654;9.294;2022-07-01T16:30:51;34.60;51.40
38414;DHT22;24195;48.654;9.294;2022-07-01T16:59:27;30.10;54.80
38414;DHT22;24195;48.654;9.294;2022-07-01T17:01:57;29.70;59.90
38414;DHT22;24195;48.654;9.294;2022-07-01T17:04:26;33.10;57.20
38414;DHT22;24195;48.654;9.294;2022-07-01T17:07:03;32.40;54.50
38414;DHT22;24195;48.654;9.294;2022-07-01T17:09:28;28.70;61.50
38414;DHT22;24195;48.654;9.294;2022-07-01T17:11:58;27.10;66.60
38414;DHT22;24195;48.654;9.294;2022-07-01T17:14:25;23.70;74.20
38414;DHT22;24195;48.654;9.294;2022-07-01T17:16:51;23.20;75.30
38414;DHT22;24195;48.654;9.294;2022-07-01T17:19:17;22.60;79.50
38414;DHT22;24195;48.654;9.294;2022-07-01T17:21:44;23.10;85.10
38414;DHT22;24195;48.654;9.294;2022-07-01T17:24:13;23.50;88.50
38414;DHT22;24195;48.654;9.294;2022-07-01T17:27:21;24.30;80.00
38414;DHT22;24195;48.654;9.294;2022-07-01T17:54:34;22.20;87.50
38414;DHT22;24195;48.654;9.294;2022-07-01T17:57:31;21.40;91.50
38414;DHT22;24195;48.654;9.294;2022-07-01T18:02:39;20.40;96.90
38414;DHT22;24195;48.654;9.294;2022-07-01T18:07:40;19.80;99.90
38414;DHT22;24195;48.654;9.294;2022-07-01T18:10:13;20.40;99.90
38414;DHT22;24195;48.654;9.294;2022-07-01T18:20:52;19.80;99.90
38414;DHT22;24195;48.654;9.294;2022-07-01T18:28:50;19.30;99.90
38414;DHT22;24195;48.654;9.294;2022-07-01T18:52:10;26.00;97.20
38414;DHT22;24195;48.654;9.294;2022-07-01T19:28:31;16.90;99.90
38414;DHT22;24195;48.654;9.294;2022-07-01T19:30:57;16.10;99.90